createdAt,value
2018-07-10T00:00:15.254Z,890.10
2018-07-10T00:01:15.244Z,890.13
2018-07-10T00:02:15.241Z,890.10
2018-07-10T00:03:15.232Z,890.12
2018-07-10T00:04:36.232Z,890.11
2018-07-10T00:05:15.212Z,890.11
2018-07-10T00:06:15.211Z,890.13
2018-07-10T00:07:15.197Z,890.14
2018-07-10T00:08:15.183Z,890.14
2018-07-10T00:09:15.173Z,890.13
2018-07-10T00:10:36.172Z,890.17
2018-07-10T00:11:15.164Z,890.15
2018-07-10T00:12:15.201Z,890.14
2018-07-10T00:13:15.154Z,890.15
2018-07-10T00:14:15.138Z,890.11
2018-07-10T00:15:15.125Z,890.11
2018-07-10T00:16:36.126Z,890.12
2018-07-10T00:17:15.108Z,890.09
2018-07-10T00:18:15.099Z,890.10
2018-07-10T00:19:15.091Z,890.08
2018-07-10T00:20:15.082Z,890.02
2018-07-10T00:21:15.068Z,890.01
2018-07-10T00:22:36.069Z,889.98
2018-07-10T00:23:15.056Z,889.96
2018-07-10T00:24:15.047Z,889.97
2018-07-10T00:25:15.039Z,889.95
2018-07-10T00:26:15.033Z,889.92
2018-07-10T00:27:15.025Z,889.89
2018-07-10T00:28:36.011Z,889.89
2018-07-10T00:29:15.003Z,889.88
2018-07-10T00:30:14.994Z,889.87
2018-07-10T00:31:14.995Z,889.88
2018-07-10T00:32:14.979Z,889.84
2018-07-10T00:33:14.969Z,889.83
2018-07-10T00:34:35.961Z,889.81
2018-07-10T00:35:14.951Z,889.81
2018-07-10T00:36:14.942Z,889.78
2018-07-10T00:37:14.931Z,889.80
2018-07-10T00:38:14.921Z,889.77
2018-07-10T00:39:14.912Z,889.75
2018-07-10T00:40:35.909Z,889.77
2018-07-10T00:41:14.902Z,889.78
2018-07-10T00:42:14.887Z,889.77
2018-07-10T00:43:14.878Z,889.71
2018-07-10T00:44:14.878Z,889.72
2018-07-10T00:45:14.867Z,889.73
2018-07-10T00:46:35.868Z,889.70
2018-07-10T00:47:14.846Z,889.71
2018-07-10T00:48:14.832Z,889.71
2018-07-10T00:49:14.822Z,889.69
2018-07-10T00:50:14.818Z,889.69
2018-07-10T00:51:14.804Z,889.69
2018-07-10T00:52:35.806Z,889.66
2018-07-10T00:53:14.790Z,889.67
2018-07-10T00:54:14.785Z,889.67
2018-07-10T00:55:14.777Z,889.65
2018-07-10T00:56:14.765Z,889.61
2018-07-10T00:57:14.755Z,889.67
2018-07-10T00:58:35.750Z,889.65
2018-07-10T00:59:14.738Z,889.62
2018-07-10T01:00:14.726Z,889.63
2018-07-10T01:01:14.716Z,889.60
2018-07-10T01:02:14.709Z,889.65
2018-07-10T01:03:14.701Z,889.64
2018-07-10T01:04:35.703Z,889.62
2018-07-10T01:05:14.689Z,889.62
2018-07-10T01:06:14.679Z,889.60
2018-07-10T01:07:14.673Z,889.58
2018-07-10T01:08:14.659Z,889.58
2018-07-10T01:09:14.653Z,889.51
2018-07-10T01:10:35.649Z,889.48
2018-07-10T01:11:14.630Z,889.44
2018-07-10T01:12:14.621Z,889.45
2018-07-10T01:13:14.615Z,889.42
2018-07-10T01:14:14.611Z,889.44
2018-07-10T01:15:14.594Z,889.41
2018-07-10T01:16:35.596Z,889.44
2018-07-10T01:17:14.576Z,889.44
2018-07-10T01:18:14.571Z,889.43
2018-07-10T01:19:14.559Z,889.42
2018-07-10T01:20:14.559Z,889.39
2018-07-10T01:21:14.543Z,889.39
2018-07-10T01:22:35.538Z,889.34
2018-07-10T01:23:14.527Z,889.35
2018-07-10T01:24:14.517Z,889.31
2018-07-10T01:25:14.505Z,889.33
2018-07-10T01:26:14.502Z,889.33
2018-07-10T01:27:14.488Z,889.25
2018-07-10T01:28:35.486Z,889.34
2018-07-10T01:29:14.466Z,889.30
2018-07-10T01:30:14.460Z,889.21
2018-07-10T01:31:14.448Z,889.23
2018-07-10T01:32:14.438Z,889.25
2018-07-10T01:33:14.432Z,889.29
2018-07-10T01:34:35.436Z,889.23
2018-07-10T01:35:14.413Z,889.23
2018-07-10T01:36:14.407Z,889.19
2018-07-10T01:37:14.403Z,889.17
2018-07-10T01:38:14.391Z,889.19
2018-07-10T01:39:14.379Z,889.20
2018-07-10T01:40:35.373Z,889.20
2018-07-10T01:41:14.363Z,889.15
2018-07-10T01:42:14.350Z,889.14
2018-07-10T01:43:14.340Z,889.16
2018-07-10T01:44:14.334Z,889.10
2018-07-10T01:45:14.327Z,889.05
2018-07-10T01:46:35.322Z,889.09
2018-07-10T01:47:14.308Z,889.08
2018-07-10T01:48:14.297Z,889.06
2018-07-10T01:49:14.284Z,889.01
2018-07-10T01:50:14.275Z,889.05
2018-07-10T01:51:14.269Z,888.96
2018-07-10T01:52:35.265Z,888.95
2018-07-10T01:53:14.249Z,888.91
2018-07-10T01:54:14.243Z,888.90
2018-07-10T01:55:14.237Z,888.88
2018-07-10T01:56:14.219Z,888.88
2018-07-10T01:57:14.219Z,888.86
2018-07-10T01:58:35.212Z,888.87
2018-07-10T01:59:14.196Z,888.87
2018-07-10T02:00:14.186Z,888.88
2018-07-10T02:01:14.180Z,888.82
2018-07-10T02:02:14.171Z,888.88
2018-07-10T02:03:14.159Z,888.89
2018-07-10T02:04:35.163Z,888.91
2018-07-10T02:05:14.145Z,888.88
2018-07-10T02:06:14.136Z,888.85
2018-07-10T02:07:14.126Z,888.85
2018-07-10T02:08:14.114Z,888.81
2018-07-10T02:09:14.106Z,888.81
2018-07-10T02:10:35.106Z,888.79
2018-07-10T02:11:14.087Z,888.79
2018-07-10T02:12:14.078Z,888.83
2018-07-10T02:13:14.070Z,888.79
2018-07-10T02:14:14.065Z,888.81
2018-07-10T02:15:14.051Z,888.82
2018-07-10T02:16:35.048Z,888.83
2018-07-10T02:17:14.047Z,888.83
2018-07-10T02:18:14.029Z,888.83
2018-07-10T02:19:14.013Z,888.86
2018-07-10T02:20:14.009Z,888.85
2018-07-10T02:21:13.999Z,888.87
2018-07-10T02:22:34.994Z,888.85
2018-07-10T02:23:13.976Z,888.87
2018-07-10T02:24:13.966Z,888.87
2018-07-10T02:25:13.954Z,888.88
2018-07-10T02:26:13.947Z,888.91
2018-07-10T02:27:13.942Z,888.90
2018-07-10T02:28:34.934Z,888.88
2018-07-10T02:29:13.922Z,888.87
2018-07-10T02:30:13.911Z,888.90
2018-07-10T02:31:13.901Z,888.84
2018-07-10T02:32:13.897Z,888.86
2018-07-10T02:33:13.887Z,888.85
2018-07-10T02:34:34.887Z,888.87
2018-07-10T02:35:13.867Z,888.84
2018-07-10T02:36:13.883Z,888.84
2018-07-10T02:37:13.849Z,888.86
2018-07-10T02:38:13.841Z,888.81
2018-07-10T02:39:13.830Z,888.82
2018-07-10T02:40:34.826Z,888.79
2018-07-10T02:41:13.814Z,888.80
2018-07-10T02:42:13.804Z,888.77
2018-07-10T02:43:13.796Z,888.78
2018-07-10T02:44:13.782Z,888.74
2018-07-10T02:45:13.786Z,888.71
2018-07-10T02:46:34.769Z,888.75
2018-07-10T02:47:13.756Z,888.75
2018-07-10T02:48:13.747Z,888.75
2018-07-10T02:49:13.737Z,888.78
2018-07-10T02:50:13.736Z,888.80
2018-07-10T02:51:13.719Z,888.81
2018-07-10T02:52:34.717Z,888.77
2018-07-10T02:53:13.705Z,888.75
2018-07-10T02:54:13.694Z,888.79
2018-07-10T02:55:13.692Z,888.75
2018-07-10T02:56:13.673Z,888.74
2018-07-10T02:57:13.674Z,888.79
2018-07-10T02:58:34.664Z,888.77
2018-07-10T02:59:13.646Z,888.74
2018-07-10T03:00:13.637Z,888.75
2018-07-10T03:01:13.624Z,888.74
2018-07-10T03:02:13.617Z,888.72
2018-07-10T03:03:13.605Z,888.74
2018-07-10T03:04:34.610Z,888.68
2018-07-10T03:05:13.586Z,888.73
2018-07-10T03:06:13.577Z,888.69
2018-07-10T03:07:13.571Z,888.65
2018-07-10T03:08:13.561Z,888.69
2018-07-10T03:09:13.547Z,888.70
2018-07-10T03:10:34.554Z,888.71
2018-07-10T03:11:13.535Z,888.65
2018-07-10T03:12:13.520Z,888.66
2018-07-10T03:13:13.512Z,888.66
2018-07-10T03:14:13.498Z,888.68
2018-07-10T03:15:13.498Z,888.65
2018-07-10T03:16:34.490Z,888.62
2018-07-10T03:17:13.472Z,888.58
2018-07-10T03:18:13.464Z,888.60
2018-07-10T03:19:13.455Z,888.59
2018-07-10T03:20:13.445Z,888.55
2018-07-10T03:21:13.436Z,888.59
2018-07-10T03:22:34.449Z,888.63
2018-07-10T03:23:13.420Z,888.60
2018-07-10T03:24:13.404Z,888.65
2018-07-10T03:25:13.415Z,888.67
2018-07-10T03:26:13.395Z,888.71
2018-07-10T03:27:13.385Z,888.71
2018-07-10T03:28:34.375Z,888.67
2018-07-10T03:29:13.357Z,888.73
2018-07-10T03:30:13.353Z,888.69
2018-07-10T03:31:13.344Z,888.69
2018-07-10T03:32:13.331Z,888.68
2018-07-10T03:33:13.324Z,888.67
2018-07-10T03:34:34.319Z,888.66
2018-07-10T03:35:13.305Z,888.69
2018-07-10T03:36:13.291Z,888.66
2018-07-10T03:37:13.286Z,888.70
2018-07-10T03:38:13.275Z,888.72
2018-07-10T03:39:13.268Z,888.73
2018-07-10T03:40:34.256Z,888.75
2018-07-10T03:41:13.246Z,888.76
2018-07-10T03:42:13.241Z,888.73
2018-07-10T03:43:13.227Z,888.74
2018-07-10T03:44:13.218Z,888.77
2018-07-10T03:45:13.209Z,888.74
2018-07-10T03:46:34.205Z,888.77
2018-07-10T03:47:13.191Z,888.79
2018-07-10T03:48:13.182Z,888.80
2018-07-10T03:49:13.172Z,888.81
2018-07-10T03:50:13.156Z,888.81
2018-07-10T03:51:13.150Z,888.80
2018-07-10T03:52:34.136Z,888.80
2018-07-10T03:53:13.134Z,888.79
2018-07-10T03:54:13.116Z,888.86
2018-07-10T03:55:13.115Z,888.81
2018-07-10T03:56:13.103Z,888.84
2018-07-10T03:57:13.094Z,888.81
2018-07-10T03:58:34.089Z,888.81
2018-07-10T03:59:13.075Z,888.81
2018-07-10T04:00:13.066Z,888.82
2018-07-10T04:01:13.060Z,888.83
2018-07-10T04:02:13.045Z,888.85
2018-07-10T04:03:13.037Z,888.85
2018-07-10T04:04:34.032Z,888.85
2018-07-10T04:05:13.021Z,888.88
2018-07-10T04:06:13.009Z,888.92
2018-07-10T04:07:12.994Z,888.89
2018-07-10T04:08:12.986Z,888.86
2018-07-10T04:09:13.009Z,888.86
2018-07-10T04:10:33.971Z,888.86
2018-07-10T04:11:12.959Z,888.86
2018-07-10T04:12:12.947Z,888.88
2018-07-10T04:13:12.938Z,888.84
2018-07-10T04:14:12.933Z,888.86
2018-07-10T04:15:12.912Z,888.86
2018-07-10T04:16:33.916Z,888.86
2018-07-10T04:17:12.902Z,888.91
2018-07-10T04:18:12.886Z,888.89
2018-07-10T04:19:12.882Z,888.94
2018-07-10T04:20:12.874Z,888.86
2018-07-10T04:21:12.870Z,888.88
2018-07-10T04:22:33.865Z,888.87
2018-07-10T04:23:12.849Z,888.92
2018-07-10T04:24:12.835Z,888.92
2018-07-10T04:25:12.823Z,888.96
2018-07-10T04:26:12.819Z,888.94
2018-07-10T04:27:12.804Z,888.96
2018-07-10T04:28:33.816Z,888.97
2018-07-10T04:29:12.789Z,888.99
2018-07-10T04:30:12.776Z,888.99
2018-07-10T04:31:12.766Z,888.97
2018-07-10T04:32:12.763Z,888.96
2018-07-10T04:33:12.753Z,888.95
2018-07-10T04:34:33.744Z,888.92
2018-07-10T04:35:12.728Z,888.92
2018-07-10T04:36:12.722Z,888.87
2018-07-10T04:37:12.710Z,888.86
2018-07-10T04:38:12.701Z,888.85
2018-07-10T04:39:12.695Z,888.83
2018-07-10T04:40:33.684Z,888.83
2018-07-10T04:41:12.677Z,888.84
2018-07-10T04:42:12.691Z,888.84
2018-07-10T04:43:12.651Z,888.85
2018-07-10T04:44:12.639Z,888.83
2018-07-10T04:45:12.637Z,888.84
2018-07-10T04:46:33.635Z,888.87
2018-07-10T04:47:12.622Z,888.83
2018-07-10T04:48:12.603Z,888.85
2018-07-10T04:49:12.600Z,888.87
2018-07-10T04:50:12.587Z,888.83
2018-07-10T04:51:12.580Z,888.84
2018-07-10T04:52:33.571Z,888.82
2018-07-10T04:53:12.556Z,888.81
2018-07-10T04:54:12.549Z,888.86
2018-07-10T04:55:12.538Z,888.85
2018-07-10T04:56:12.535Z,888.85
2018-07-10T04:57:12.518Z,888.90
2018-07-10T04:58:33.518Z,888.90
2018-07-10T04:59:12.504Z,888.92
2018-07-10T05:00:12.488Z,888.89
2018-07-10T05:01:12.482Z,888.90
2018-07-10T05:02:12.473Z,888.88
2018-07-10T05:03:12.469Z,888.85
2018-07-10T05:04:33.457Z,888.89
2018-07-10T05:05:12.447Z,888.86
2018-07-10T05:06:12.439Z,888.88
2018-07-10T05:07:12.427Z,888.88
2018-07-10T05:08:12.413Z,888.90
2018-07-10T05:09:12.401Z,888.91
2018-07-10T05:10:33.408Z,888.92
2018-07-10T05:11:12.389Z,888.96
2018-07-10T05:12:12.394Z,888.93
2018-07-10T05:13:12.368Z,888.92
2018-07-10T05:14:12.355Z,888.91
2018-07-10T05:15:12.361Z,888.89
2018-07-10T05:16:33.351Z,888.91
2018-07-10T05:17:12.329Z,888.91
2018-07-10T05:18:12.319Z,888.90
2018-07-10T05:19:12.311Z,888.91
2018-07-10T05:20:12.303Z,888.91
2018-07-10T05:21:12.296Z,888.88
2018-07-10T05:22:33.287Z,888.91
2018-07-10T05:23:12.284Z,888.90
2018-07-10T05:24:12.263Z,888.88
2018-07-10T05:25:12.255Z,888.87
2018-07-10T05:26:12.250Z,888.89
2018-07-10T05:27:12.236Z,888.91
2018-07-10T05:28:33.232Z,888.92
2018-07-10T05:29:12.376Z,888.90
2018-07-10T05:30:12.213Z,888.92
2018-07-10T05:31:12.198Z,888.90
2018-07-10T05:32:12.194Z,888.88
2018-07-10T05:33:12.182Z,888.92
2018-07-10T05:34:33.182Z,888.89
2018-07-10T05:35:12.160Z,888.87
2018-07-10T05:36:12.152Z,888.88
2018-07-10T05:37:12.179Z,888.88
2018-07-10T05:38:12.140Z,888.87
2018-07-10T05:39:12.124Z,888.88
2018-07-10T05:40:33.123Z,888.83
2018-07-10T05:41:12.108Z,888.88
2018-07-10T05:42:12.099Z,888.84
2018-07-10T05:43:12.083Z,888.86
2018-07-10T05:44:12.080Z,888.85
2018-07-10T05:45:12.070Z,888.86
2018-07-10T05:46:33.143Z,888.83
2018-07-10T05:47:12.052Z,888.87
2018-07-10T05:48:12.044Z,888.83
2018-07-10T05:49:12.032Z,888.85
2018-07-10T05:50:12.019Z,888.86
2018-07-10T05:51:12.015Z,888.85
2018-07-10T05:52:33.011Z,888.83
2018-07-10T05:53:11.998Z,888.87
2018-07-10T05:54:11.989Z,888.84
2018-07-10T05:55:11.978Z,888.83
2018-07-10T05:56:11.979Z,888.85
2018-07-10T05:57:11.957Z,888.83
2018-07-10T05:58:33.044Z,888.80
2018-07-10T05:59:11.947Z,888.81
2018-07-10T06:00:11.929Z,888.82
2018-07-10T06:01:11.918Z,888.85
2018-07-10T06:02:11.918Z,888.77
2018-07-10T06:03:11.902Z,888.76
2018-07-10T06:04:32.902Z,888.74
2018-07-10T06:05:11.886Z,888.73
2018-07-10T06:06:11.877Z,888.76
2018-07-10T06:07:11.869Z,888.75
2018-07-10T06:08:11.861Z,888.75
2018-07-10T06:09:11.853Z,888.72
2018-07-10T06:10:32.911Z,888.68
2018-07-10T06:11:11.830Z,888.68
2018-07-10T06:12:11.821Z,888.70
2018-07-10T06:13:11.813Z,888.67
2018-07-10T06:14:11.802Z,888.71
2018-07-10T06:15:11.794Z,888.68
2018-07-10T06:16:32.792Z,888.68
2018-07-10T06:17:11.782Z,888.66
2018-07-10T06:18:11.765Z,888.67
2018-07-10T06:19:11.763Z,888.63
2018-07-10T06:20:11.747Z,888.63
2018-07-10T06:21:11.745Z,888.63
2018-07-10T06:22:32.731Z,888.64
2018-07-10T06:23:11.724Z,888.65
2018-07-10T06:24:11.709Z,888.65
2018-07-10T06:25:11.704Z,888.60
2018-07-10T06:26:11.703Z,888.60
2018-07-10T06:27:11.688Z,888.61
2018-07-10T06:28:32.680Z,888.58
2018-07-10T06:29:11.666Z,888.54
2018-07-10T06:30:11.723Z,888.51
2018-07-10T06:31:11.649Z,888.48
2018-07-10T06:32:11.641Z,888.46
2018-07-10T06:33:11.631Z,888.43
2018-07-10T06:34:32.635Z,888.44
2018-07-10T06:35:11.615Z,888.39
2018-07-10T06:36:11.607Z,888.41
2018-07-10T06:37:11.602Z,888.40
2018-07-10T06:38:11.586Z,888.37
2018-07-10T06:39:11.592Z,888.36
2018-07-10T06:40:32.578Z,888.36
2018-07-10T06:41:11.564Z,888.36
2018-07-10T06:42:11.565Z,888.37
2018-07-10T06:43:11.549Z,888.36
2018-07-10T06:44:11.536Z,888.30
2018-07-10T06:45:11.530Z,888.31
2018-07-10T06:46:32.524Z,888.29
2018-07-10T06:47:11.513Z,888.28
2018-07-10T06:48:11.506Z,888.27
2018-07-10T06:49:11.491Z,888.23
2018-07-10T06:50:11.493Z,888.27
2018-07-10T06:51:11.482Z,888.27
2018-07-10T06:52:32.497Z,888.30
2018-07-10T06:53:11.595Z,888.29
2018-07-10T06:54:11.453Z,888.27
2018-07-10T06:55:11.448Z,888.26
2018-07-10T06:56:11.434Z,888.26
2018-07-10T06:57:11.423Z,888.25
2018-07-10T06:58:32.428Z,888.23
2018-07-10T06:59:11.416Z,888.30
2018-07-10T07:00:11.403Z,888.28
2018-07-10T07:01:11.397Z,888.29
2018-07-10T07:02:11.389Z,888.28
2018-07-10T07:03:11.376Z,888.26
2018-07-10T07:04:32.374Z,888.22
2018-07-10T07:05:11.356Z,888.20
2018-07-10T07:06:11.356Z,888.16
2018-07-10T07:07:11.350Z,888.09
2018-07-10T07:08:11.334Z,888.06
2018-07-10T07:09:11.330Z,888.06
2018-07-10T07:10:32.329Z,888.08
2018-07-10T07:11:11.313Z,888.08
2018-07-10T07:12:11.301Z,888.11
2018-07-10T07:13:11.290Z,888.13
2018-07-10T07:14:11.285Z,888.11
2018-07-10T07:15:11.280Z,888.13
2018-07-10T07:16:32.273Z,888.13
2018-07-10T07:17:11.267Z,888.11
2018-07-10T07:18:11.260Z,888.12
2018-07-10T07:19:11.258Z,888.11
2018-07-10T07:20:11.236Z,888.05
2018-07-10T07:21:11.235Z,888.05
2018-07-10T07:22:32.226Z,888.05
2018-07-10T07:23:11.217Z,888.08
2018-07-10T07:24:11.210Z,888.08
2018-07-10T07:25:11.197Z,888.05
2018-07-10T07:26:11.189Z,888.06
2018-07-10T07:27:11.191Z,888.04
2018-07-10T07:28:32.182Z,888.07
2018-07-10T07:29:11.160Z,888.10
2018-07-10T07:30:11.168Z,888.08
2018-07-10T07:31:11.156Z,888.09
2018-07-10T07:32:11.142Z,888.08
2018-07-10T07:33:11.134Z,888.09
2018-07-10T07:34:32.129Z,888.06
2018-07-10T07:35:11.115Z,888.06
2018-07-10T07:36:11.109Z,888.03
2018-07-10T07:37:11.101Z,888.08
2018-07-10T07:38:11.100Z,888.05
2018-07-10T07:39:11.087Z,888.03
2018-07-10T07:40:32.081Z,888.01
2018-07-10T07:41:11.078Z,888.03
2018-07-10T07:42:11.072Z,888.03
2018-07-10T07:43:11.060Z,888.06
2018-07-10T07:44:11.072Z,888.05
2018-07-10T07:45:11.044Z,888.07
2018-07-10T07:46:32.043Z,888.05
2018-07-10T07:47:11.028Z,888.07
2018-07-10T07:48:11.018Z,888.04
2018-07-10T07:49:11.014Z,888.03
2018-07-10T07:50:11.005Z,888.01
2018-07-10T07:51:10.993Z,887.98
2018-07-10T07:52:32.061Z,887.93
2018-07-10T07:53:10.980Z,887.94
2018-07-10T07:54:10.978Z,887.94
2018-07-10T07:55:10.965Z,887.89
2018-07-10T07:56:10.955Z,887.84
2018-07-10T07:57:10.946Z,887.84
2018-07-10T07:58:31.965Z,887.87
2018-07-10T07:59:10.931Z,887.87
2018-07-10T08:00:10.960Z,887.86
2018-07-10T08:01:10.913Z,887.89
2018-07-10T08:02:10.924Z,887.87
2018-07-10T08:03:10.900Z,887.85
2018-07-10T08:04:31.900Z,887.83
2018-07-10T08:05:10.884Z,887.81
2018-07-10T08:06:10.883Z,887.81
2018-07-10T08:07:10.872Z,887.84
2018-07-10T08:08:10.865Z,887.83
2018-07-10T08:09:10.853Z,887.82
2018-07-10T08:10:31.855Z,887.81
2018-07-10T08:11:10.835Z,887.77
2018-07-10T08:12:10.834Z,887.78
2018-07-10T08:13:10.883Z,887.77
2018-07-10T08:14:10.819Z,887.75
2018-07-10T08:15:10.811Z,887.74
2018-07-10T08:16:31.801Z,887.78
2018-07-10T08:17:10.803Z,887.71
2018-07-10T08:18:10.789Z,887.70
2018-07-10T08:19:10.789Z,887.75
2018-07-10T08:20:10.769Z,887.70
2018-07-10T08:21:10.771Z,887.66
2018-07-10T08:22:31.768Z,887.72
2018-07-10T08:23:10.746Z,887.68
2018-07-10T08:24:10.744Z,887.62
2018-07-10T08:25:10.748Z,887.65
2018-07-10T08:26:10.733Z,887.64
2018-07-10T08:27:10.718Z,887.63
2018-07-10T08:28:31.720Z,887.60
2018-07-10T08:29:10.704Z,887.57
2018-07-10T08:30:10.693Z,887.56
2018-07-10T08:31:10.683Z,887.58
2018-07-10T08:32:10.679Z,887.58
2018-07-10T08:33:10.682Z,887.56
2018-07-10T08:34:31.679Z,887.59
2018-07-10T08:35:10.661Z,887.61
2018-07-10T08:36:10.649Z,887.53
2018-07-10T08:37:10.649Z,887.58
2018-07-10T08:38:10.642Z,887.57
2018-07-10T08:39:10.633Z,887.56
2018-07-10T08:40:31.628Z,887.56
2018-07-10T08:41:10.618Z,887.59
2018-07-10T08:42:10.609Z,887.57
2018-07-10T08:43:10.602Z,887.59
2018-07-10T08:44:10.602Z,887.56
2018-07-10T08:45:10.588Z,887.53
2018-07-10T08:46:31.587Z,887.53
2018-07-10T08:47:10.571Z,887.54
2018-07-10T08:48:10.567Z,887.51
2018-07-10T08:49:10.553Z,887.57
2018-07-10T08:50:10.543Z,887.54
2018-07-10T08:51:10.541Z,887.49
2018-07-10T08:52:31.537Z,887.51
2018-07-10T08:53:10.521Z,887.46
2018-07-10T08:54:10.520Z,887.46
2018-07-10T08:55:10.512Z,887.42
2018-07-10T08:56:10.500Z,887.47
2018-07-10T08:57:10.494Z,887.45
2018-07-10T08:58:31.497Z,887.46
2018-07-10T08:59:10.486Z,887.49
2018-07-10T09:00:10.474Z,887.43
2018-07-10T09:01:10.464Z,887.46
2018-07-10T09:02:10.459Z,887.48
2018-07-10T09:03:10.473Z,887.49
2018-07-10T09:04:31.447Z,887.45
2018-07-10T09:05:10.433Z,887.42
2018-07-10T09:06:10.426Z,887.43
2018-07-10T09:07:10.422Z,887.43
2018-07-10T09:08:10.421Z,887.33
2018-07-10T09:09:10.414Z,887.37
2018-07-10T09:10:31.408Z,887.37
2018-07-10T09:11:10.394Z,887.39
2018-07-10T09:12:10.386Z,887.37
2018-07-10T09:13:10.380Z,887.33
2018-07-10T09:14:10.376Z,887.32
2018-07-10T09:15:10.364Z,887.37
2018-07-10T09:16:31.362Z,887.37
2018-07-10T09:17:10.348Z,887.34
2018-07-10T09:18:10.348Z,887.31
2018-07-10T09:19:10.331Z,887.31
2018-07-10T09:20:10.325Z,887.28
2018-07-10T09:21:10.328Z,887.30
2018-07-10T09:22:31.323Z,887.29
2018-07-10T09:23:10.340Z,887.28
2018-07-10T09:24:10.299Z,887.28
2018-07-10T09:25:10.295Z,887.26
2018-07-10T09:26:10.292Z,887.24
2018-07-10T09:27:10.288Z,887.30
2018-07-10T09:28:31.280Z,887.28
2018-07-10T09:29:10.268Z,887.30
2018-07-10T09:30:10.257Z,887.26
2018-07-10T09:31:10.253Z,887.24
2018-07-10T09:32:10.239Z,887.25
2018-07-10T09:33:10.235Z,887.25
2018-07-10T09:34:31.236Z,887.27
2018-07-10T09:35:10.226Z,887.25
2018-07-10T09:36:10.216Z,887.25
2018-07-10T09:37:10.214Z,887.24
2018-07-10T09:38:10.224Z,887.21
2018-07-10T09:39:10.198Z,887.21
2018-07-10T09:40:31.191Z,887.17
2018-07-10T09:41:10.178Z,887.19
2018-07-10T09:42:10.177Z,887.21
2018-07-10T09:43:10.169Z,887.17
2018-07-10T09:44:10.192Z,887.19
2018-07-10T09:45:10.161Z,887.19
2018-07-10T09:46:31.157Z,887.17
2018-07-10T09:47:10.137Z,887.12
2018-07-10T09:48:10.135Z,887.10
2018-07-10T09:49:10.128Z,887.10
2018-07-10T09:50:10.120Z,887.10
2018-07-10T09:51:10.114Z,887.12
2018-07-10T09:52:31.105Z,887.09
2018-07-10T09:53:10.127Z,887.11
2018-07-10T09:54:10.089Z,887.05
2018-07-10T09:55:10.089Z,887.08
2018-07-10T09:56:10.078Z,887.06
2018-07-10T09:57:10.068Z,887.06
2018-07-10T09:58:31.069Z,887.08
2018-07-10T09:59:10.054Z,887.07
2018-07-10T10:00:10.054Z,887.03
2018-07-10T10:01:10.036Z,887.01
2018-07-10T10:02:10.030Z,887.00
2018-07-10T10:03:10.038Z,887.02
2018-07-10T10:04:31.023Z,886.99
2018-07-10T10:05:10.019Z,887.04
2018-07-10T10:06:10.009Z,887.00
2018-07-10T10:07:10.000Z,886.96
2018-07-10T10:08:09.985Z,886.96
2018-07-10T10:09:09.992Z,886.96
2018-07-10T10:10:30.984Z,886.93
2018-07-10T10:11:09.976Z,886.98
2018-07-10T10:12:09.967Z,886.97
2018-07-10T10:13:09.952Z,886.99
2018-07-10T10:14:09.945Z,886.98
2018-07-10T10:15:09.941Z,886.97
2018-07-10T10:16:30.936Z,886.99
2018-07-10T10:17:09.930Z,886.96
2018-07-10T10:18:09.921Z,887.02
2018-07-10T10:19:09.915Z,887.01
2018-07-10T10:20:09.907Z,886.99
2018-07-10T10:21:09.897Z,887.01
2018-07-10T10:22:30.900Z,887.00
2018-07-10T10:23:09.893Z,886.99
2018-07-10T10:24:09.885Z,887.02
2018-07-10T10:25:09.870Z,887.02
2018-07-10T10:26:09.865Z,886.99
2018-07-10T10:27:09.862Z,886.92
2018-07-10T10:28:30.856Z,886.91
2018-07-10T10:29:09.848Z,886.90
2018-07-10T10:30:09.833Z,886.86
2018-07-10T10:31:09.831Z,886.84
2018-07-10T10:32:09.821Z,886.83
2018-07-10T10:33:09.819Z,886.80
2018-07-10T10:34:30.816Z,886.79
2018-07-10T10:35:09.804Z,886.82
2018-07-10T10:36:09.796Z,886.81
2018-07-10T10:37:09.794Z,886.81
2018-07-10T10:38:09.785Z,886.81
2018-07-10T10:39:09.773Z,886.80
2018-07-10T10:40:30.772Z,886.81
2018-07-10T10:41:09.764Z,886.82
2018-07-10T10:42:09.757Z,886.83
2018-07-10T10:43:09.745Z,886.78
2018-07-10T10:44:09.733Z,886.82
2018-07-10T10:45:09.729Z,886.82
2018-07-10T10:46:30.739Z,886.82
2018-07-10T10:47:09.722Z,886.80
2018-07-10T10:48:09.712Z,886.81
2018-07-10T10:49:09.710Z,886.82
2018-07-10T10:50:09.702Z,886.82
2018-07-10T10:51:09.692Z,886.83
2018-07-10T10:52:30.687Z,886.81
2018-07-10T10:53:09.686Z,886.87
2018-07-10T10:54:09.666Z,886.88
2018-07-10T10:55:09.664Z,886.86
2018-07-10T10:56:09.671Z,886.90
2018-07-10T10:57:09.653Z,886.90
2018-07-10T10:58:30.645Z,886.89
2018-07-10T10:59:09.638Z,886.89
2018-07-10T11:00:09.631Z,886.89
2018-07-10T11:01:09.621Z,886.87
2018-07-10T11:02:09.614Z,886.87
2018-07-10T11:03:09.606Z,886.82
2018-07-10T11:04:30.610Z,886.85
2018-07-10T11:05:09.590Z,886.79
2018-07-10T11:06:09.588Z,886.82
2018-07-10T11:07:09.580Z,886.87
2018-07-10T11:08:09.569Z,886.81
2018-07-10T11:09:09.567Z,886.76
2018-07-10T11:10:30.566Z,886.76
2018-07-10T11:11:09.548Z,886.76
2018-07-10T11:12:09.540Z,886.77
2018-07-10T11:13:09.565Z,886.75
2018-07-10T11:14:09.528Z,886.77
2018-07-10T11:15:09.524Z,886.77
2018-07-10T11:16:30.518Z,886.76
2018-07-10T11:17:09.506Z,886.75
2018-07-10T11:18:09.499Z,886.78
2018-07-10T11:19:09.498Z,886.79
2018-07-10T11:20:09.487Z,886.78
2018-07-10T11:21:09.479Z,886.78
2018-07-10T11:22:30.481Z,886.79
2018-07-10T11:23:09.463Z,886.80
2018-07-10T11:24:09.455Z,886.78
2018-07-10T11:25:09.456Z,886.82
2018-07-10T11:26:09.444Z,886.82
2018-07-10T11:27:09.430Z,886.86
2018-07-10T11:28:30.434Z,886.84
2018-07-10T11:29:09.424Z,886.86
2018-07-10T11:30:09.410Z,886.84
2018-07-10T11:31:09.426Z,886.86
2018-07-10T11:32:09.426Z,886.87
2018-07-10T11:33:09.385Z,886.82
2018-07-10T11:34:30.393Z,886.82
2018-07-10T11:35:09.385Z,886.82
2018-07-10T11:36:09.376Z,886.82
2018-07-10T11:37:09.365Z,886.87
2018-07-10T11:38:09.369Z,886.82
2018-07-10T11:39:09.381Z,886.90
2018-07-10T11:40:30.350Z,886.85
2018-07-10T11:41:09.336Z,886.86
2018-07-10T11:42:09.337Z,886.76
2018-07-10T11:43:09.329Z,886.80
2018-07-10T11:44:09.311Z,886.75
2018-07-10T11:45:09.307Z,886.81
2018-07-10T11:46:30.306Z,886.83
2018-07-10T11:47:09.292Z,886.83
2018-07-10T11:48:09.281Z,886.83
2018-07-10T11:49:09.294Z,886.82
2018-07-10T11:50:09.269Z,886.82
2018-07-10T11:51:09.263Z,886.81
2018-07-10T11:52:30.261Z,886.85
2018-07-10T11:53:09.250Z,886.81
2018-07-10T11:54:09.242Z,886.80
2018-07-10T11:55:09.238Z,886.76
2018-07-10T11:56:09.230Z,886.76
2018-07-10T11:57:09.217Z,886.80
2018-07-10T11:58:30.215Z,886.78
2018-07-10T11:59:09.207Z,886.79
2018-07-10T12:00:09.202Z,886.76
2018-07-10T12:01:09.189Z,886.70
2018-07-10T12:02:09.186Z,886.75
2018-07-10T12:03:09.172Z,886.71
2018-07-10T12:04:30.174Z,886.73
2018-07-10T12:05:09.160Z,886.75
2018-07-10T12:06:09.160Z,886.75
2018-07-10T12:07:09.149Z,886.76
2018-07-10T12:08:09.151Z,886.77
2018-07-10T12:09:09.137Z,886.79
2018-07-10T12:10:30.137Z,886.81
2018-07-10T12:11:09.118Z,886.80
2018-07-10T12:12:09.118Z,886.79
2018-07-10T12:13:09.099Z,886.83
2018-07-10T12:14:09.097Z,886.83
2018-07-10T12:15:09.094Z,886.82
2018-07-10T12:16:30.087Z,886.80
2018-07-10T12:17:09.068Z,886.77
2018-07-10T12:18:09.069Z,886.81
2018-07-10T12:19:09.054Z,886.84
2018-07-10T12:20:09.053Z,886.82
2018-07-10T12:21:09.045Z,886.81
2018-07-10T12:22:30.044Z,886.86
2018-07-10T12:23:09.030Z,886.84
2018-07-10T12:24:09.022Z,886.88
2018-07-10T12:25:09.015Z,886.88
2018-07-10T12:26:09.015Z,886.87
2018-07-10T12:27:08.999Z,886.86
2018-07-10T12:28:29.999Z,886.84